Time;durP1;ratioP1;P1;durP2;ratioP2;P2;SDS_P1;SDS_P2;PMS_P1;PMS_P2;Temp;Humidity;BMP_temperature;BMP_pressure;BME280_temperature;BME280_humidity;BME280_pressure;Samples;Min_cycle;Max_cycle;Signal;HPM_P1;HPM_P2
2021/12/04 00:07:05;;;;;;;6.80;2.33;;;;;;;3.88;66.06;99294.59;20741962;28;20057;-70
2021/12/04 00:17:07;;;;;;;7.18;2.72;;;;;;;3.93;65.62;99290.25;20741539;28;20422;-70
2021/12/04 00:27:09;;;;;;;4.75;2.10;;;;;;;3.89;65.77;99268.72;20741392;28;20484;-70
2021/12/04 00:57:35;;;;;;;6.38;1.90;;;;;;;3.82;71.73;99213.50;20737908;28;20565;-71
2021/12/04 01:07:36;;;;;;;4.22;1.90;;;;;;;3.74;76.88;99186.00;20736967;28;20101;-73
2021/12/04 01:17:38;;;;;;;6.60;1.70;;;;;;;3.59;82.37;99181.75;20736686;28;20112;-74
2021/12/04 01:27:46;;;;;;;4.70;2.20;;;;;;;3.44;86.55;99176.69;20736393;28;20175;-75
2021/12/04 01:37:47;;;;;;;5.80;2.47;;;;;;;3.30;88.95;99154.34;20735091;28;20062;-74
2021/12/04 01:47:49;;;;;;;5.13;2.65;;;;;;;3.18;90.34;99148.41;20735644;28;20042;-73
2021/12/04 01:57:50;;;;;;;7.18;3.25;;;;;;;3.12;91.70;99123.47;20734952;28;20069;-74
2021/12/04 02:07:52;;;;;;;6.53;2.97;;;;;;;3.07;93.08;99109.69;20736759;28;20557;-75
2021/12/04 02:17:54;;;;;;;6.45;3.13;;;;;;;3.19;94.01;99098.41;20750647;28;20422;-75
2021/12/04 02:27:56;;;;;;;8.25;3.55;;;;;;;3.11;93.64;99088.09;20749822;28;20046;-75
2021/12/04 02:37:58;;;;;;;7.22;3.33;;;;;;;3.00;95.04;99074.38;20748669;28;20112;-75
2021/12/04 02:47:59;;;;;;;9.63;4.10;;;;;;;3.01;95.08;99058.00;20748843;28;20061;-74
2021/12/04 02:58:01;;;;;;;8.25;3.90;;;;;;;3.06;95.59;99035.56;20747776;28;20054;-76
2021/12/04 03:08:04;;;;;;;8.68;4.82;;;;;;;2.96;94.63;99011.50;20746481;28;20050;-76
2021/12/04 03:18:05;;;;;;;7.53;4.00;;;;;;;2.79;96.38;99005.59;20745040;28;20058;-74
2021/12/04 03:28:08;;;;;;;10.82;6.35;;;;;;;2.40;96.33;98970.56;20746792;28;20077;-74
2021/12/04 03:58:33;;;;;;;15.52;7.28;;;;;;;2.29;97.83;98911.19;20743373;28;20466;-74
2021/12/04 04:08:35;;;;;;;12.57;6.82;;;;;;;2.37;98.89;98905.97;20742599;28;20053;-74
2021/12/04 04:18:36;;;;;;;13.38;6.20;;;;;;;2.29;99.14;98896.53;20742176;28;20499;-74
2021/12/04 04:28:38;;;;;;;11.90;6.32;;;;;;;2.26;99.68;98873.34;20740992;28;20104;-75
2021/12/04 04:39:07;;;;;;;11.88;6.10;;;;;;;2.34;100.00;98856.94;20738737;28;20487;-74
2021/12/04 05:20:13;;;;;;;17.42;8.02;;;;;;;2.33;99.89;98825.06;20737290;28;20058;-74
2021/12/04 05:30:15;;;;;;;8.82;5.07;;;;;;;2.33;100.00;98819.91;20736300;28;20124;-74
2021/12/04 05:40:17;;;;;;;8.43;4.78;;;;;;;2.37;100.00;98813.00;20735919;28;20050;-75
2021/12/04 06:00:38;;;;;;;10.63;6.10;;;;;;;2.32;99.92;98792.38;20734486;28;20050;-74
2021/12/04 06:10:40;;;;;;;11.57;6.22;;;;;;;2.29;99.60;98787.22;20839555;23;20069;-83
2021/12/04 06:31:06;;;;;;;17.70;8.73;;;;;;;2.25;100.00;98773.50;20832528;28;20057;-82
2021/12/04 06:41:08;;;;;;;;;;;;;;;2.37;99.90;98769.09;20805313;28;20054;-82
2021/12/04 06:51:20;;;;;;;15.18;8.57;;;;;;;2.39;100.00;98764.75;20805245;28;19975;-83
2021/12/04 07:01:22;;;;;;;16.20;8.85;;;;;;;2.43;100.00;98758.69;20816715;28;20490;-82
2021/12/04 07:11:27;;;;;;;18.25;9.23;;;;;;;2.46;100.00;98753.53;20836264;28;20050;-81
2021/12/04 07:21:29;;;;;;;23.65;12.43;;;;;;;2.62;99.97;98749.91;20838315;28;20112;-85
2021/12/04 07:31:31;;;;;;;20.48;11.15;;;;;;;2.55;100.00;98743.09;20822018;28;20049;-82
2021/12/04 07:41:38;;;;;;;31.25;17.40;;;;;;;2.63;100.00;98733.50;20820337;28;20053;-82
2021/12/04 07:51:39;;;;;;;26.80;12.60;;;;;;;2.68;100.00;98723.13;20819256;28;20112;-84
2021/12/04 08:01:41;;;;;;;26.70;12.73;;;;;;;2.75;100.00;98729.97;20818077;28;20057;-83
2021/12/04 08:11:43;;;;;;;23.95;13.10;;;;;;;2.86;100.00;98722.06;20799728;28;20467;-85
2021/12/04 08:21:44;;;;;;;21.38;11.10;;;;;;;2.88;100.00;98712.59;20795727;28;20105;-84
2021/12/04 08:31:47;;;;;;;22.50;12.82;;;;;;;3.02;100.00;98702.94;20822210;28;20053;-86
2021/12/04 08:41:48;;;;;;;24.17;12.70;;;;;;;3.08;99.92;98708.88;20829574;28;20693;-83
2021/12/04 08:51:50;;;;;;;24.40;11.82;;;;;;;3.22;100.00;98700.94;20834705;28;20056;-85
2021/12/04 09:01:52;;;;;;;24.60;11.80;;;;;;;3.20;100.00;98694.91;20820907;28;20053;-82
2021/12/04 09:12:01;;;;;;;24.42;11.50;;;;;;;3.28;100.00;98690.50;20815392;28;20053;-82
2021/12/04 09:22:07;;;;;;;22.35;10.98;;;;;;;3.43;100.00;98683.41;20834196;28;20419;-82
2021/12/04 10:14:09;;;;;;;23.67;13.27;;;;;;;3.91;100.00;98608.44;20830422;28;20057;-82
2021/12/04 10:34:36;;;;;;;19.38;11.43;;;;;;;4.04;100.00;98584.03;20842727;28;20049;-84
2021/12/04 10:44:41;;;;;;;17.73;10.38;;;;;;;4.10;100.00;98570.97;20846193;28;20502;-82
2021/12/04 10:54:43;;;;;;;18.17;10.32;;;;;;;4.21;100.00;98534.50;20831179;28;20049;-82
2021/12/04 11:04:49;;;;;;;20.73;11.60;;;;;;;4.25;100.00;98510.25;20831679;28;20123;-83
2021/12/04 11:46:16;;;;;;;14.20;8.10;;;;;;;4.85;100.00;98445.84;20841030;28;20129;-83
2021/12/04 11:56:22;;;;;;;15.13;8.93;;;;;;;4.91;100.00;98433.59;20842947;28;20046;-81
2021/12/04 12:06:32;;;;;;;15.32;8.50;;;;;;;5.07;100.00;98425.38;20822790;28;20050;-83
2021/12/04 12:16:39;;;;;;;10.98;6.03;;;;;;;5.33;100.00;98410.91;20822849;28;20545;-83
2021/12/04 12:27:06;;;;;;;12.82;6.32;;;;;;;5.53;100.00;98387.00;20816017;28;20049;-83
2021/12/04 12:37:22;;;;;;;12.95;7.68;;;;;;;5.48;100.00;98368.97;20826473;28;20458;-82
2021/12/04 12:47:23;;;;;;;13.73;8.70;;;;;;;5.48;100.00;98362.94;20811780;28;20117;-83
2021/12/04 12:57:30;;;;;;;14.18;9.00;;;;;;;5.62;100.00;98360.81;20815927;28;20410;-82
2021/12/04 13:18:08;;;;;;;13.57;7.28;;;;;;;7.13;100.00;98348.22;20837508;28;20497;-82
2021/12/04 13:38:23;;;;;;;6.28;2.50;;;;;;;7.88;100.00;98314.25;20850378;28;20049;-82
2021/12/04 13:48:27;;;;;;;6.22;2.70;;;;;;;8.09;100.00;98319.53;20838893;28;20049;-83
2021/12/04 13:58:29;;;;;;;5.70;2.58;;;;;;;8.31;100.00;98329.97;20858782;28;20080;-82
2021/12/04 14:08:32;;;;;;;3.78;1.55;;;;;;;8.30;100.00;98352.59;20836715;28;20124;-82
2021/12/04 14:18:36;;;;;;;4.32;2.03;;;;;;;8.39;100.00;98354.88;20907917;28;20580;-82
2021/12/04 14:28:42;;;;;;;5.60;1.98;;;;;;;8.42;100.00;98359.97;20939277;28;20103;-80
2021/12/04 14:38:45;;;;;;;4.45;1.60;;;;;;;8.40;100.00;98372.22;20919723;28;20053;-84
2021/12/04 14:48:49;;;;;;;4.10;1.70;;;;;;;8.43;100.00;98366.91;20940628;28;20057;-81
2021/12/04 14:58:51;;;;;;;4.63;2.30;;;;;;;8.37;100.00;98359.28;20913649;28;20111;-82
2021/12/04 15:09:14;;;;;;;4.55;2.10;;;;;;;8.38;100.00;98353.16;20866439;28;20494;-82
2021/12/04 15:19:20;;;;;;;4.20;2.25;;;;;;;8.47;100.00;98371.06;20835539;28;20080;-82
2021/12/04 15:29:24;;;;;;;7.57;3.70;;;;;;;8.42;100.00;98380.81;20826659;28;20053;-82
2021/12/04 15:39:32;;;;;;;5.27;2.10;;;;;;;8.23;100.00;98380.66;20821521;28;20049;-82
2021/12/04 15:59:52;;;;;;;3.45;1.70;;;;;;;8.28;100.00;98408.31;20839539;28;20049;-82
2021/12/04 16:09:54;;;;;;;5.55;2.05;;;;;;;8.19;100.00;98425.16;20825290;28;20096;-83
2021/12/04 16:20:06;;;;;;;3.85;1.13;;;;;;;8.15;100.00;98423.59;20793672;28;20058;-82
2021/12/04 16:30:27;;;;;;;4.80;1.90;;;;;;;8.06;100.00;98424.78;20739759;28;20093;-84
2021/12/04 16:40:36;;;;;;;3.28;1.60;;;;;;;7.93;100.00;98465.22;20746583;28;20113;-82
2021/12/04 17:00:58;;;;;;;4.68;1.23;;;;;;;7.86;99.17;98532.34;20759482;28;20179;-83
2021/12/04 17:11:00;;;;;;;3.13;1.40;;;;;;;7.65;96.93;98586.00;20767138;28;20064;-83
2021/12/04 17:21:02;;;;;;;4.60;1.60;;;;;;;7.51;96.42;98622.06;20760657;28;20077;-83
2021/12/04 17:31:04;;;;;;;3.25;1.38;;;;;;;7.37;96.47;98637.25;20767129;28;20511;-85
2021/12/04 17:41:05;;;;;;;1.40;0.70;;;;;;;7.29;95.52;98639.25;20739655;28;20054;-83
2021/12/04 17:51:07;;;;;;;1.48;0.68;;;;;;;7.16;95.38;98685.63;20741002;28;20200;-84
2021/12/04 18:01:13;;;;;;;10.95;4.07;;;;;;;7.18;93.01;98704.63;20744815;28;20052;-84
2021/12/04 18:11:23;;;;;;;1.55;0.80;;;;;;;7.05;92.82;98734.53;20730094;28;20065;-83
2021/12/04 18:21:28;;;;;;;0.82;0.40;;;;;;;6.97;92.88;98746.91;20748869;28;20061;-83
2021/12/04 18:31:29;;;;;;;3.22;1.10;;;;;;;6.87;94.18;98757.56;20733803;28;20129;-83
2021/12/04 18:41:31;;;;;;;2.25;0.55;;;;;;;6.82;93.05;98790.66;20733008;28;20117;-83
2021/12/04 18:51:36;;;;;;;1.00;0.70;;;;;;;6.72;91.51;98783.97;20734502;28;20054;-83
2021/12/04 19:01:38;;;;;;;1.97;0.80;;;;;;;6.69;90.61;98794.44;20743227;28;20100;-83
2021/12/04 19:11:45;;;;;;;2.58;1.27;;;;;;;6.66;89.71;98808.41;20743034;28;20089;-82
2021/12/04 19:21:53;;;;;;;2.15;0.77;;;;;;;6.44;89.95;98828.03;20738387;28;20120;-83
2021/12/04 19:32:03;;;;;;;3.22;1.40;;;;;;;6.40;89.15;98879.22;20779552;28;20463;-83
2021/12/04 19:52:27;;;;;;;3.42;1.30;;;;;;;6.18;81.05;98924.81;20760394;28;20085;-84
2021/12/04 20:02:32;;;;;;;5.15;1.50;;;;;;;6.02;81.29;98962.38;20796448;28;20459;-84
2021/12/04 20:23:03;;;;;;;5.82;2.28;;;;;;;6.04;80.99;99022.97;20822135;28;20073;-84
2021/12/04 20:33:16;;;;;;;6.07;1.70;;;;;;;5.97;81.25;99032.59;20725199;28;20097;-85
2021/12/04 22:26:44;;;;;;;7.82;2.50;;;;;;;4.47;92.88;99138.66;20745331;28;20412;-86
2021/12/04 23:18:14;;;;;;;9.88;2.30;;;;;;;4.41;93.72;99200.03;20747392;28;20061;-84
